sensor_id;sensor_type;location;lat;lon;timestamp;temperature;humidity
81307;DHT22;70775;50.846;3.224;2023-09-19T00:04:05;15.20;81.40
81307;DHT22;70775;50.846;3.224;2023-09-19T00:06:36;15.20;81.50
81307;DHT22;70775;50.846;3.224;2023-09-19T00:09:05;15.30;81.70
81307;DHT22;70775;50.846;3.224;2023-09-19T00:11:37;15.20;82.10
81307;DHT22;70775;50.846;3.224;2023-09-19T00:14:12;15.20;82.80
81307;DHT22;70775;50.846;3.224;2023-09-19T00:16:40;15.20;83.10
81307;DHT22;70775;50.846;3.224;2023-09-19T00:19:06;15.20;83.30
81307;DHT22;70775;50.846;3.224;2023-09-19T00:22:03;15.30;83.40
81307;DHT22;70775;50.846;3.224;2023-09-19T00:24:31;15.20;83.60
81307;DHT22;70775;50.846;3.224;2023-09-19T00:27:10;15.20;84.40
81307;DHT22;70775;50.846;3.224;2023-09-19T00:29:35;15.30;83.70
81307;DHT22;70775;50.846;3.224;2023-09-19T00:32:04;15.30;83.80
81307;DHT22;70775;50.846;3.224;2023-09-19T00:34:31;15.30;83.30
81307;DHT22;70775;50.846;3.224;2023-09-19T00:36:59;15.30;83.30
81307;DHT22;70775;50.846;3.224;2023-09-19T00:39:25;15.30;83.30
81307;DHT22;70775;50.846;3.224;2023-09-19T00:42:05;15.40;83.10
81307;DHT22;70775;50.846;3.224;2023-09-19T00:44:35;15.30;83.30
81307;DHT22;70775;50.846;3.224;2023-09-19T00:47:02;15.30;83.10
81307;DHT22;70775;50.846;3.224;2023-09-19T00:49:28;15.40;83.10
81307;DHT22;70775;50.846;3.224;2023-09-19T00:51:59;15.40;83.50
81307;DHT22;70775;50.846;3.224;2023-09-19T00:54:25;15.40;83.10
81307;DHT22;70775;50.846;3.224;2023-09-19T00:56:51;15.40;83.10
81307;DHT22;70775;50.846;3.224;2023-09-19T00:59:20;15.30;83.00
81307;DHT22;70775;50.846;3.224;2023-09-19T01:01:58;15.40;82.80
81307;DHT22;70775;50.846;3.224;2023-09-19T01:04:25;15.50;81.80
81307;DHT22;70775;50.846;3.224;2023-09-19T01:06:53;15.50;82.30
81307;DHT22;70775;50.846;3.224;2023-09-19T01:09:20;15.40;82.50
81307;DHT22;70775;50.846;3.224;2023-09-19T01:11:48;15.50;81.70
81307;DHT22;70775;50.846;3.224;2023-09-19T01:15:20;15.40;82.00
81307;DHT22;70775;50.846;3.224;2023-09-19T01:17:46;15.50;81.70
81307;DHT22;70775;50.846;3.224;2023-09-19T01:32:43;15.50;81.10
81307;DHT22;70775;50.846;3.224;2023-09-19T01:38:19;15.50;81.30
81307;DHT22;70775;50.846;3.224;2023-09-19T01:41:13;15.40;81.30
81307;DHT22;70775;50.846;3.224;2023-09-19T01:43:43;15.40;81.80
81307;DHT22;70775;50.846;3.224;2023-09-19T01:46:33;15.40;82.00
81307;DHT22;70775;50.846;3.224;2023-09-19T01:49:27;15.40;82.20
81307;DHT22;70775;50.846;3.224;2023-09-19T01:52:10;15.40;82.50
81307;DHT22;70775;50.846;3.224;2023-09-19T01:54:52;15.30;83.10
81307;DHT22;70775;50.846;3.224;2023-09-19T01:57:29;15.30;83.70
81307;DHT22;70775;50.846;3.224;2023-09-19T02:00:06;15.30;84.00
81307;DHT22;70775;50.846;3.224;2023-09-19T02:02:52;15.30;84.80
81307;DHT22;70775;50.846;3.224;2023-09-19T02:05:24;15.30;85.40
81307;DHT22;70775;50.846;3.224;2023-09-19T02:07:50;15.20;86.00
81307;DHT22;70775;50.846;3.224;2023-09-19T02:10:19;15.20;86.70
81307;DHT22;70775;50.846;3.224;2023-09-19T02:12:44;15.20;87.40
81307;DHT22;70775;50.846;3.224;2023-09-19T02:15:10;15.20;87.80
81307;DHT22;70775;50.846;3.224;2023-09-19T02:17:36;15.10;88.20
81307;DHT22;70775;50.846;3.224;2023-09-19T02:20:01;15.00;89.00
81307;DHT22;70775;50.846;3.224;2023-09-19T02:22:29;15.10;88.90
81307;DHT22;70775;50.846;3.224;2023-09-19T02:24:55;15.10;89.70
81307;DHT22;70775;50.846;3.224;2023-09-19T02:27:23;15.10;89.90
81307;DHT22;70775;50.846;3.224;2023-09-19T02:29:50;15.00;90.20
81307;DHT22;70775;50.846;3.224;2023-09-19T02:35:18;14.90;90.70
81307;DHT22;70775;50.846;3.224;2023-09-19T02:37:48;14.90;90.40
81307;DHT22;70775;50.846;3.224;2023-09-19T02:40:14;15.00;90.30
81307;DHT22;70775;50.846;3.224;2023-09-19T02:42:53;15.00;90.50
81307;DHT22;70775;50.846;3.224;2023-09-19T02:45:20;14.90;90.40
81307;DHT22;70775;50.846;3.224;2023-09-19T02:48:08;14.90;90.20
81307;DHT22;70775;50.846;3.224;2023-09-19T02:53:28;14.90;90.20
81307;DHT22;70775;50.846;3.224;2023-09-19T02:55:56;14.90;89.80
81307;DHT22;70775;50.846;3.224;2023-09-19T02:58:22;15.00;90.00
81307;DHT22;70775;50.846;3.224;2023-09-19T03:00:49;15.00;89.50
81307;DHT22;70775;50.846;3.224;2023-09-19T03:03:17;15.00;88.90
81307;DHT22;70775;50.846;3.224;2023-09-19T03:05:42;15.00;88.70
81307;DHT22;70775;50.846;3.224;2023-09-19T03:08:13;14.90;88.80
81307;DHT22;70775;50.846;3.224;2023-09-19T03:10:46;14.90;90.00
81307;DHT22;70775;50.846;3.224;2023-09-19T03:13:20;14.90;88.80
81307;DHT22;70775;50.846;3.224;2023-09-19T03:16:02;14.90;88.40
81307;DHT22;70775;50.846;3.224;2023-09-19T03:18:30;14.90;88.70
81307;DHT22;70775;50.846;3.224;2023-09-19T03:21:07;14.80;89.80
81307;DHT22;70775;50.846;3.224;2023-09-19T03:23:33;14.80;89.20
81307;DHT22;70775;50.846;3.224;2023-09-19T03:26:01;14.80;89.20
81307;DHT22;70775;50.846;3.224;2023-09-19T03:31:18;14.80;89.50
81307;DHT22;70775;50.846;3.224;2023-09-19T03:33:43;14.80;89.60
81307;DHT22;70775;50.846;3.224;2023-09-19T03:36:09;14.70;90.00
81307;DHT22;70775;50.846;3.224;2023-09-19T03:38:35;14.60;90.20
81307;DHT22;70775;50.846;3.224;2023-09-19T03:41:01;14.70;90.10
81307;DHT22;70775;50.846;3.224;2023-09-19T03:43:27;14.60;90.20
81307;DHT22;70775;50.846;3.224;2023-09-19T03:49:13;14.60;90.40
81307;DHT22;70775;50.846;3.224;2023-09-19T03:55:13;14.60;90.60
81307;DHT22;70775;50.846;3.224;2023-09-19T03:57:39;14.50;90.80
81307;DHT22;70775;50.846;3.224;2023-09-19T04:00:05;14.50;90.90
81307;DHT22;70775;50.846;3.224;2023-09-19T04:02:51;14.50;91.10
81307;DHT22;70775;50.846;3.224;2023-09-19T04:05:52;14.40;91.20
81307;DHT22;70775;50.846;3.224;2023-09-19T04:08:29;14.50;91.30
81307;DHT22;70775;50.846;3.224;2023-09-19T04:10:59;14.50;91.30
81307;DHT22;70775;50.846;3.224;2023-09-19T04:13:26;14.40;91.30
81307;DHT22;70775;50.846;3.224;2023-09-19T04:16:03;14.50;91.50
81307;DHT22;70775;50.846;3.224;2023-09-19T04:18:29;14.40;91.70
81307;DHT22;70775;50.846;3.224;2023-09-19T04:21:10;14.40;91.80
81307;DHT22;70775;50.846;3.224;2023-09-19T04:23:36;14.40;91.90
81307;DHT22;70775;50.846;3.224;2023-09-19T04:26:17;14.50;91.80
81307;DHT22;70775;50.846;3.224;2023-09-19T04:28:42;14.50;91.80
81307;DHT22;70775;50.846;3.224;2023-09-19T04:31:09;14.50;91.80
81307;DHT22;70775;50.846;3.224;2023-09-19T04:33:35;14.50;91.70
81307;DHT22;70775;50.846;3.224;2023-09-19T04:36:37;14.50;91.80
81307;DHT22;70775;50.846;3.224;2023-09-19T04:39:11;14.50;91.90
81307;DHT22;70775;50.846;3.224;2023-09-19T04:41:38;14.50;92.00
81307;DHT22;70775;50.846;3.224;2023-09-19T04:44:06;14.40;92.00
81307;DHT22;70775;50.846;3.224;2023-09-19T04:46:31;14.40;92.00
81307;DHT22;70775;50.846;3.224;2023-09-19T04:48:57;14.40;92.00
81307;DHT22;70775;50.846;3.224;2023-09-19T04:51:23;14.50;91.90
81307;DHT22;70775;50.846;3.224;2023-09-19T04:53:49;14.40;92.00
81307;DHT22;70775;50.846;3.224;2023-09-19T04:59:36;14.40;92.00
81307;DHT22;70775;50.846;3.224;2023-09-19T05:02:02;14.50;91.90
81307;DHT22;70775;50.846;3.224;2023-09-19T05:04:27;14.40;92.00
81307;DHT22;70775;50.846;3.224;2023-09-19T05:06:53;14.40;91.90
81307;DHT22;70775;50.846;3.224;2023-09-19T05:09:19;14.40;91.90
81307;DHT22;70775;50.846;3.224;2023-09-19T05:11:47;14.40;91.80
81307;DHT22;70775;50.846;3.224;2023-09-19T05:14:13;14.40;91.90
81307;DHT22;70775;50.846;3.224;2023-09-19T05:17:16;14.50;91.80
81307;DHT22;70775;50.846;3.224;2023-09-19T05:19:42;14.50;91.90
81307;DHT22;70775;50.846;3.224;2023-09-19T05:22:08;14.40;92.00
81307;DHT22;70775;50.846;3.224;2023-09-19T05:24:34;14.50;92.00
81307;DHT22;70775;50.846;3.224;2023-09-19T05:27:17;14.50;92.10
81307;DHT22;70775;50.846;3.224;2023-09-19T05:29:43;14.50;92.20
81307;DHT22;70775;50.846;3.224;2023-09-19T05:32:10;14.60;92.10
81307;DHT22;70775;50.846;3.224;2023-09-19T05:35:01;14.60;92.10
81307;DHT22;70775;50.846;3.224;2023-09-19T05:37:26;14.60;92.00
81307;DHT22;70775;50.846;3.224;2023-09-19T05:39:52;14.60;92.20
81307;DHT22;70775;50.846;3.224;2023-09-19T05:45:42;14.70;92.10
81307;DHT22;70775;50.846;3.224;2023-09-19T05:48:21;14.80;91.90
81307;DHT22;70775;50.846;3.224;2023-09-19T05:50:47;14.70;91.90
81307;DHT22;70775;50.846;3.224;2023-09-19T05:53:14;14.70;92.00
81307;DHT22;70775;50.846;3.224;2023-09-19T05:55:40;14.70;92.10
81307;DHT22;70775;50.846;3.224;2023-09-19T05:58:07;14.60;92.10
81307;DHT22;70775;50.846;3.224;2023-09-19T06:00:32;14.60;92.20
81307;DHT22;70775;50.846;3.224;2023-09-19T06:02:59;14.60;92.20
81307;DHT22;70775;50.846;3.224;2023-09-19T06:05:28;14.60;92.20
81307;DHT22;70775;50.846;3.224;2023-09-19T06:07:55;14.60;92.10
81307;DHT22;70775;50.846;3.224;2023-09-19T06:10:25;14.60;92.20
81307;DHT22;70775;50.846;3.224;2023-09-19T06:12:51;14.70;92.20
81307;DHT22;70775;50.846;3.224;2023-09-19T06:15:18;14.70;92.20
81307;DHT22;70775;50.846;3.224;2023-09-19T06:17:52;14.80;92.00
81307;DHT22;70775;50.846;3.224;2023-09-19T06:20:21;14.80;92.10
81307;DHT22;70775;50.846;3.224;2023-09-19T06:22:49;14.80;92.00
81307;DHT22;70775;50.846;3.224;2023-09-19T06:25:16;14.80;91.90
81307;DHT22;70775;50.846;3.224;2023-09-19T06:27:51;14.80;91.80
81307;DHT22;70775;50.846;3.224;2023-09-19T06:30:22;14.80;91.70
81307;DHT22;70775;50.846;3.224;2023-09-19T06:32:49;14.80;91.90
81307;DHT22;70775;50.846;3.224;2023-09-19T06:35:16;14.80;92.30
81307;DHT22;70775;50.846;3.224;2023-09-19T06:37:42;14.80;91.80
81307;DHT22;70775;50.846;3.224;2023-09-19T06:40:09;14.90;91.50
81307;DHT22;70775;50.846;3.224;2023-09-19T06:42:46;14.90;92.10
81307;DHT22;70775;50.846;3.224;2023-09-19T06:45:13;14.90;92.10
81307;DHT22;70775;50.846;3.224;2023-09-19T06:47:44;15.00;91.40
81307;DHT22;70775;50.846;3.224;2023-09-19T06:50:11;15.00;91.50
81307;DHT22;70775;50.846;3.224;2023-09-19T06:52:42;15.00;91.30
81307;DHT22;70775;50.846;3.224;2023-09-19T06:55:08;15.10;91.50
81307;DHT22;70775;50.846;3.224;2023-09-19T06:57:39;15.10;91.40
81307;DHT22;70775;50.846;3.224;2023-09-19T07:00:06;15.10;91.10
81307;DHT22;70775;50.846;3.224;2023-09-19T07:03:02;15.20;91.10
81307;DHT22;70775;50.846;3.224;2023-09-19T07:05:30;15.20;91.20
81307;DHT22;70775;50.846;3.224;2023-09-19T07:07:59;15.30;91.00
81307;DHT22;70775;50.846;3.224;2023-09-19T07:10:26;15.30;90.80
81307;DHT22;70775;50.846;3.224;2023-09-19T07:15:21;15.40;91.10
81307;DHT22;70775;50.846;3.224;2023-09-19T07:17:50;15.50;90.80
81307;DHT22;70775;50.846;3.224;2023-09-19T07:20:16;15.50;90.50
81307;DHT22;70775;50.846;3.224;2023-09-19T07:22:42;15.60;90.20
81307;DHT22;70775;50.846;3.224;2023-09-19T07:25:07;15.60;90.20
81307;DHT22;70775;50.846;3.224;2023-09-19T07:27:33;15.60;90.30
81307;DHT22;70775;50.846;3.224;2023-09-19T07:29:59;15.60;89.70
81307;DHT22;70775;50.846;3.224;2023-09-19T07:32:24;15.60;90.00
81307;DHT22;70775;50.846;3.224;2023-09-19T07:34:50;15.70;89.90
81307;DHT22;70775;50.846;3.224;2023-09-19T07:37:16;15.70;90.10
81307;DHT22;70775;50.846;3.224;2023-09-19T07:39:42;15.80;89.50
81307;DHT22;70775;50.846;3.224;2023-09-19T07:42:08;15.90;88.90
81307;DHT22;70775;50.846;3.224;2023-09-19T07:44:36;15.90;88.70
81307;DHT22;70775;50.846;3.224;2023-09-19T07:47:02;16.00;88.70
81307;DHT22;70775;50.846;3.224;2023-09-19T07:49:29;16.00;88.70
81307;DHT22;70775;50.846;3.224;2023-09-19T07:51:54;15.90;89.00
81307;DHT22;70775;50.846;3.224;2023-09-19T07:54:22;16.00;88.80
81307;DHT22;70775;50.846;3.224;2023-09-19T07:56:47;16.00;88.40
81307;DHT22;70775;50.846;3.224;2023-09-19T07:59:13;16.10;88.10
81307;DHT22;70775;50.846;3.224;2023-09-19T08:01:39;16.10;89.00
81307;DHT22;70775;50.846;3.224;2023-09-19T08:04:07;16.10;88.20
81307;DHT22;70775;50.846;3.224;2023-09-19T08:06:32;16.20;88.70
81307;DHT22;70775;50.846;3.224;2023-09-19T08:08:58;16.30;87.20
81307;DHT22;70775;50.846;3.224;2023-09-19T08:11:26;16.30;87.10
81307;DHT22;70775;50.846;3.224;2023-09-19T08:13:51;16.30;87.30
81307;DHT22;70775;50.846;3.224;2023-09-19T08:16:17;16.40;86.90
81307;DHT22;70775;50.846;3.224;2023-09-19T08:18:48;16.40;86.70
81307;DHT22;70775;50.846;3.224;2023-09-19T08:21:21;16.50;86.90
81307;DHT22;70775;50.846;3.224;2023-09-19T08:23:47;16.50;86.20
81307;DHT22;70775;50.846;3.224;2023-09-19T08:26:12;16.60;86.20
81307;DHT22;70775;50.846;3.224;2023-09-19T08:28:38;16.70;85.10
81307;DHT22;70775;50.846;3.224;2023-09-19T08:31:07;16.70;84.40
81307;DHT22;70775;50.846;3.224;2023-09-19T08:33:34;16.80;85.20
81307;DHT22;70775;50.846;3.224;2023-09-19T08:36:01;16.90;85.40
81307;DHT22;70775;50.846;3.224;2023-09-19T08:38:27;16.90;84.50
81307;DHT22;70775;50.846;3.224;2023-09-19T08:41:00;17.00;84.40
81307;DHT22;70775;50.846;3.224;2023-09-19T08:43:26;17.10;83.60
81307;DHT22;70775;50.846;3.224;2023-09-19T08:46:18;17.00;84.20
81307;DHT22;70775;50.846;3.224;2023-09-19T08:49:00;17.00;83.60
81307;DHT22;70775;50.846;3.224;2023-09-19T08:51:42;17.10;84.40
81307;DHT22;70775;50.846;3.224;2023-09-19T08:54:30;17.10;83.50
81307;DHT22;70775;50.846;3.224;2023-09-19T08:57:00;17.20;83.60
81307;DHT22;70775;50.846;3.224;2023-09-19T08:59:33;17.30;82.30
81307;DHT22;70775;50.846;3.224;2023-09-19T09:02:00;17.40;83.40
81307;DHT22;70775;50.846;3.224;2023-09-19T09:04:27;17.50;82.40
81307;DHT22;70775;50.846;3.224;2023-09-19T09:06:53;17.40;82.80
81307;DHT22;70775;50.846;3.224;2023-09-19T09:09:21;17.50;82.40
81307;DHT22;70775;50.846;3.224;2023-09-19T09:11:48;17.50;82.70
81307;DHT22;70775;50.846;3.224;2023-09-19T09:14:19;17.50;82.30
81307;DHT22;70775;50.846;3.224;2023-09-19T09:16:46;17.60;82.40
81307;DHT22;70775;50.846;3.224;2023-09-19T09:19:14;17.50;81.80
81307;DHT22;70775;50.846;3.224;2023-09-19T09:21:40;17.60;82.90
81307;DHT22;70775;50.846;3.224;2023-09-19T09:24:30;17.70;81.80
81307;DHT22;70775;50.846;3.224;2023-09-19T09:26:59;17.80;82.00
81307;DHT22;70775;50.846;3.224;2023-09-19T09:29:48;17.90;82.60
81307;DHT22;70775;50.846;3.224;2023-09-19T09:32:26;18.10;80.70
81307;DHT22;70775;50.846;3.224;2023-09-19T09:35:00;18.20;78.40
81307;DHT22;70775;50.846;3.224;2023-09-19T09:37:26;18.20;79.20
81307;DHT22;70775;50.846;3.224;2023-09-19T09:40:00;18.30;79.30
81307;DHT22;70775;50.846;3.224;2023-09-19T09:42:44;18.40;78.90
81307;DHT22;70775;50.846;3.224;2023-09-19T09:45:14;18.50;78.60
81307;DHT22;70775;50.846;3.224;2023-09-19T09:47:44;18.60;79.70
81307;DHT22;70775;50.846;3.224;2023-09-19T09:50:35;18.80;78.80
81307;DHT22;70775;50.846;3.224;2023-09-19T09:53:23;18.90;78.20
81307;DHT22;70775;50.846;3.224;2023-09-19T09:56:03;18.90;78.90
81307;DHT22;70775;50.846;3.224;2023-09-19T09:58:35;18.90;78.30
81307;DHT22;70775;50.846;3.224;2023-09-19T10:01:01;18.90;79.80
81307;DHT22;70775;50.846;3.224;2023-09-19T10:03:40;19.10;77.80
81307;DHT22;70775;50.846;3.224;2023-09-19T10:06:13;19.30;78.10
81307;DHT22;70775;50.846;3.224;2023-09-19T10:09:02;19.40;78.00
81307;DHT22;70775;50.846;3.224;2023-09-19T10:11:45;19.50;75.80
81307;DHT22;70775;50.846;3.224;2023-09-19T10:14:12;19.20;77.20
81307;DHT22;70775;50.846;3.224;2023-09-19T10:16:41;19.30;76.20
81307;DHT22;70775;50.846;3.224;2023-09-19T10:19:10;19.40;75.30
81307;DHT22;70775;50.846;3.224;2023-09-19T10:21:38;19.60;76.30
81307;DHT22;70775;50.846;3.224;2023-09-19T10:24:05;19.50;75.00
81307;DHT22;70775;50.846;3.224;2023-09-19T10:26:35;19.30;75.10
81307;DHT22;70775;50.846;3.224;2023-09-19T10:29:01;19.50;76.70
81307;DHT22;70775;50.846;3.224;2023-09-19T10:31:29;19.60;74.00
81307;DHT22;70775;50.846;3.224;2023-09-19T10:34:03;19.50;75.60
81307;DHT22;70775;50.846;3.224;2023-09-19T10:36:33;19.50;74.40
81307;DHT22;70775;50.846;3.224;2023-09-19T10:39:02;19.70;74.60
81307;DHT22;70775;50.846;3.224;2023-09-19T10:41:32;19.70;74.40
81307;DHT22;70775;50.846;3.224;2023-09-19T10:44:03;19.50;74.40
81307;DHT22;70775;50.846;3.224;2023-09-19T10:46:32;19.50;75.20
81307;DHT22;70775;50.846;3.224;2023-09-19T10:49:02;19.60;75.50
81307;DHT22;70775;50.846;3.224;2023-09-19T10:51:41;19.70;73.90
81307;DHT22;70775;50.846;3.224;2023-09-19T10:54:16;19.50;74.10
81307;DHT22;70775;50.846;3.224;2023-09-19T10:56:46;19.30;75.80
81307;DHT22;70775;50.846;3.224;2023-09-19T10:59:21;19.20;75.50
81307;DHT22;70775;50.846;3.224;2023-09-19T11:01:51;19.40;76.10
81307;DHT22;70775;50.846;3.224;2023-09-19T11:04:29;19.60;75.50
81307;DHT22;70775;50.846;3.224;2023-09-19T11:07:05;19.70;75.50
81307;DHT22;70775;50.846;3.224;2023-09-19T11:09:54;19.80;74.20
81307;DHT22;70775;50.846;3.224;2023-09-19T11:14:51;20.20;75.40
81307;DHT22;70775;50.846;3.224;2023-09-19T11:30:33;19.70;74.60
81307;DHT22;70775;50.846;3.224;2023-09-19T11:36:08;19.80;74.90
81307;DHT22;70775;50.846;3.224;2023-09-19T11:43:52;19.90;73.70
81307;DHT22;70775;50.846;3.224;2023-09-19T11:46:20;19.70;73.80
81307;DHT22;70775;50.846;3.224;2023-09-19T11:48:49;19.60;75.50
81307;DHT22;70775;50.846;3.224;2023-09-19T11:51:20;19.60;75.00
81307;DHT22;70775;50.846;3.224;2023-09-19T11:53:53;19.60;74.70
81307;DHT22;70775;50.846;3.224;2023-09-19T11:56:21;19.60;75.90
81307;DHT22;70775;50.846;3.224;2023-09-19T11:58:53;19.60;74.20
81307;DHT22;70775;50.846;3.224;2023-09-19T12:01:28;19.60;74.30
81307;DHT22;70775;50.846;3.224;2023-09-19T12:03:56;19.60;74.40
81307;DHT22;70775;50.846;3.224;2023-09-19T12:06:26;19.70;74.60
81307;DHT22;70775;50.846;3.224;2023-09-19T12:08:52;19.90;75.70
81307;DHT22;70775;50.846;3.224;2023-09-19T12:11:30;20.00;73.30
81307;DHT22;70775;50.846;3.224;2023-09-19T12:13:59;20.00;73.60
81307;DHT22;70775;50.846;3.224;2023-09-19T12:16:26;20.00;72.00
81307;DHT22;70775;50.846;3.224;2023-09-19T12:18:56;19.90;73.20
81307;DHT22;70775;50.846;3.224;2023-09-19T12:21:32;20.00;74.10
81307;DHT22;70775;50.846;3.224;2023-09-19T12:24:27;20.10;74.00
81307;DHT22;70775;50.846;3.224;2023-09-19T12:27:00;20.10;73.20
81307;DHT22;70775;50.846;3.224;2023-09-19T12:29:29;20.10;73.20
81307;DHT22;70775;50.846;3.224;2023-09-19T12:31:58;20.20;73.80
81307;DHT22;70775;50.846;3.224;2023-09-19T12:34:32;20.10;73.70
81307;DHT22;70775;50.846;3.224;2023-09-19T12:37:11;20.00;72.80
81307;DHT22;70775;50.846;3.224;2023-09-19T12:39:39;19.90;72.60
81307;DHT22;70775;50.846;3.224;2023-09-19T12:42:08;19.90;73.10
81307;DHT22;70775;50.846;3.224;2023-09-19T12:44:38;19.90;74.00
81307;DHT22;70775;50.846;3.224;2023-09-19T12:47:15;20.00;73.70
81307;DHT22;70775;50.846;3.224;2023-09-19T12:50:14;20.10;73.60
81307;DHT22;70775;50.846;3.224;2023-09-19T12:52:49;20.30;73.10
81307;DHT22;70775;50.846;3.224;2023-09-19T13:00:33;20.30;72.40
81307;DHT22;70775;50.846;3.224;2023-09-19T13:03:30;20.30;72.30
81307;DHT22;70775;50.846;3.224;2023-09-19T13:05:59;20.20;71.80
81307;DHT22;70775;50.846;3.224;2023-09-19T13:11:06;20.40;72.90
81307;DHT22;70775;50.846;3.224;2023-09-19T13:13:32;20.30;72.80
81307;DHT22;70775;50.846;3.224;2023-09-19T13:15:59;20.30;74.10
81307;DHT22;70775;50.846;3.224;2023-09-19T13:18:27;20.40;73.80
81307;DHT22;70775;50.846;3.224;2023-09-19T13:21:12;20.20;71.90
81307;DHT22;70775;50.846;3.224;2023-09-19T13:23:42;20.10;72.20
81307;DHT22;70775;50.846;3.224;2023-09-19T13:26:09;20.00;72.40
81307;DHT22;70775;50.846;3.224;2023-09-19T13:28:37;20.00;72.50
81307;DHT22;70775;50.846;3.224;2023-09-19T13:31:02;20.00;73.00
81307;DHT22;70775;50.846;3.224;2023-09-19T13:33:28;20.00;72.70
81307;DHT22;70775;50.846;3.224;2023-09-19T13:35:54;20.00;72.60
81307;DHT22;70775;50.846;3.224;2023-09-19T13:38:20;20.00;72.80
81307;DHT22;70775;50.846;3.224;2023-09-19T13:40:47;20.00;73.80
81307;DHT22;70775;50.846;3.224;2023-09-19T13:43:13;20.10;72.10
81307;DHT22;70775;50.846;3.224;2023-09-19T13:45:40;20.00;72.60
81307;DHT22;70775;50.846;3.224;2023-09-19T13:48:08;20.00;72.40
81307;DHT22;70775;50.846;3.224;2023-09-19T13:50:37;19.90;72.90
81307;DHT22;70775;50.846;3.224;2023-09-19T13:53:08;19.80;73.00
81307;DHT22;70775;50.846;3.224;2023-09-19T13:55:33;19.80;72.90
81307;DHT22;70775;50.846;3.224;2023-09-19T13:57:59;19.80;73.90
81307;DHT22;70775;50.846;3.224;2023-09-19T14:00:25;19.80;73.90
81307;DHT22;70775;50.846;3.224;2023-09-19T14:02:51;19.70;74.20
81307;DHT22;70775;50.846;3.224;2023-09-19T14:05:17;19.70;74.70
81307;DHT22;70775;50.846;3.224;2023-09-19T14:07:44;19.60;74.50
81307;DHT22;70775;50.846;3.224;2023-09-19T14:10:11;19.50;75.00
81307;DHT22;70775;50.846;3.224;2023-09-19T14:12:40;19.60;75.80
81307;DHT22;70775;50.846;3.224;2023-09-19T14:15:07;19.80;74.70
81307;DHT22;70775;50.846;3.224;2023-09-19T14:17:33;19.90;74.70
81307;DHT22;70775;50.846;3.224;2023-09-19T14:19:59;19.90;74.80
81307;DHT22;70775;50.846;3.224;2023-09-19T14:22:25;20.10;75.30
81307;DHT22;70775;50.846;3.224;2023-09-19T14:24:50;20.20;74.50
81307;DHT22;70775;50.846;3.224;2023-09-19T14:27:17;20.00;73.20
81307;DHT22;70775;50.846;3.224;2023-09-19T14:29:42;19.90;74.60
81307;DHT22;70775;50.846;3.224;2023-09-19T14:32:08;19.80;75.00
81307;DHT22;70775;50.846;3.224;2023-09-19T14:34:34;19.90;74.60
81307;DHT22;70775;50.846;3.224;2023-09-19T14:37:02;19.80;74.70
81307;DHT22;70775;50.846;3.224;2023-09-19T14:39:27;19.80;74.90
81307;DHT22;70775;50.846;3.224;2023-09-19T14:41:54;19.70;74.90
81307;DHT22;70775;50.846;3.224;2023-09-19T14:44:19;19.70;75.30
81307;DHT22;70775;50.846;3.224;2023-09-19T14:46:45;19.70;74.70
81307;DHT22;70775;50.846;3.224;2023-09-19T14:49:11;19.70;74.80
81307;DHT22;70775;50.846;3.224;2023-09-19T14:51:38;19.70;75.40
81307;DHT22;70775;50.846;3.224;2023-09-19T14:54:05;19.70;75.50
81307;DHT22;70775;50.846;3.224;2023-09-19T14:56:33;19.70;75.10
81307;DHT22;70775;50.846;3.224;2023-09-19T14:58:59;19.70;74.90
81307;DHT22;70775;50.846;3.224;2023-09-19T15:01:25;19.60;75.00
81307;DHT22;70775;50.846;3.224;2023-09-19T15:03:50;19.50;75.80
81307;DHT22;70775;50.846;3.224;2023-09-19T15:06:16;19.40;76.70
81307;DHT22;70775;50.846;3.224;2023-09-19T15:08:47;19.30;77.70
81307;DHT22;70775;50.846;3.224;2023-09-19T15:11:22;19.20;78.30
81307;DHT22;70775;50.846;3.224;2023-09-19T15:13:51;19.30;78.20
81307;DHT22;70775;50.846;3.224;2023-09-19T15:16:17;19.20;78.50
81307;DHT22;70775;50.846;3.224;2023-09-19T15:18:45;19.20;78.50
81307;DHT22;70775;50.846;3.224;2023-09-19T15:21:13;19.10;79.00
81307;DHT22;70775;50.846;3.224;2023-09-19T15:23:41;19.10;79.20
81307;DHT22;70775;50.846;3.224;2023-09-19T15:26:09;19.10;79.50
81307;DHT22;70775;50.846;3.224;2023-09-19T15:28:35;19.10;79.60
81307;DHT22;70775;50.846;3.224;2023-09-19T15:31:05;19.10;80.70
81307;DHT22;70775;50.846;3.224;2023-09-19T15:33:32;19.10;79.20
81307;DHT22;70775;50.846;3.224;2023-09-19T15:38:56;19.10;79.20
81307;DHT22;70775;50.846;3.224;2023-09-19T15:41:24;19.10;79.50
81307;DHT22;70775;50.846;3.224;2023-09-19T15:43:50;19.10;79.80
81307;DHT22;70775;50.846;3.224;2023-09-19T15:46:15;19.10;80.90
81307;DHT22;70775;50.846;3.224;2023-09-19T15:48:42;19.00;81.60
81307;DHT22;70775;50.846;3.224;2023-09-19T15:51:08;18.80;81.50
81307;DHT22;70775;50.846;3.224;2023-09-19T15:53:45;18.70;83.30
81307;DHT22;70775;50.846;3.224;2023-09-19T15:56:12;18.60;84.10
81307;DHT22;70775;50.846;3.224;2023-09-19T15:58:40;18.50;85.10
81307;DHT22;70775;50.846;3.224;2023-09-19T16:01:06;18.30;86.30
81307;DHT22;70775;50.846;3.224;2023-09-19T16:03:36;18.20;87.00
81307;DHT22;70775;50.846;3.224;2023-09-19T16:06:11;18.10;88.60
81307;DHT22;70775;50.846;3.224;2023-09-19T16:08:41;18.00;89.60
81307;DHT22;70775;50.846;3.224;2023-09-19T16:11:08;18.00;89.90
81307;DHT22;70775;50.846;3.224;2023-09-19T16:13:34;17.90;89.70
81307;DHT22;70775;50.846;3.224;2023-09-19T16:16:00;17.80;90.50
81307;DHT22;70775;50.846;3.224;2023-09-19T16:18:26;17.80;90.50
81307;DHT22;70775;50.846;3.224;2023-09-19T16:20:52;17.70;90.40
81307;DHT22;70775;50.846;3.224;2023-09-19T16:23:18;17.70;91.00
81307;DHT22;70775;50.846;3.224;2023-09-19T16:25:43;17.80;91.40
81307;DHT22;70775;50.846;3.224;2023-09-19T16:28:11;17.70;90.90
81307;DHT22;70775;50.846;3.224;2023-09-19T16:30:37;17.60;90.90
81307;DHT22;70775;50.846;3.224;2023-09-19T16:33:04;17.70;91.20
81307;DHT22;70775;50.846;3.224;2023-09-19T16:35:31;17.60;91.00
81307;DHT22;70775;50.846;3.224;2023-09-19T16:37:56;17.60;90.80
81307;DHT22;70775;50.846;3.224;2023-09-19T16:40:22;17.60;91.60
81307;DHT22;70775;50.846;3.224;2023-09-19T16:42:48;17.60;90.80
81307;DHT22;70775;50.846;3.224;2023-09-19T16:45:14;17.70;91.20
81307;DHT22;70775;50.846;3.224;2023-09-19T16:47:40;17.70;91.30
81307;DHT22;70775;50.846;3.224;2023-09-19T16:50:06;17.70;91.10
81307;DHT22;70775;50.846;3.224;2023-09-19T16:52:34;17.80;90.90
81307;DHT22;70775;50.846;3.224;2023-09-19T16:54:59;17.80;90.90
81307;DHT22;70775;50.846;3.224;2023-09-19T16:57:25;17.80;90.70
81307;DHT22;70775;50.846;3.224;2023-09-19T16:59:50;17.90;91.00
81307;DHT22;70775;50.846;3.224;2023-09-19T17:02:16;17.90;90.90
81307;DHT22;70775;50.846;3.224;2023-09-19T17:04:42;17.90;90.80
81307;DHT22;70775;50.846;3.224;2023-09-19T17:07:08;17.90;91.00